createdAt,value
2018-02-17T00:01:18.592Z,54.80
2018-02-17T00:09:02.162Z,53.70
2018-02-17T00:16:45.693Z,52.90
2018-02-17T00:19:20.184Z,53.00
2018-02-17T00:21:53.936Z,53.40
2018-02-17T00:29:36.852Z,57.20
2018-02-17T00:32:11.118Z,54.30
2018-02-17T00:37:20.084Z,53.10
2018-02-17T00:39:53.620Z,55.10
2018-02-17T00:45:01.806Z,55.00
2018-02-17T00:50:10.743Z,55.60
2018-02-17T00:52:44.380Z,54.60
2018-02-17T01:05:36.752Z,54.90
2018-02-17T01:08:10.264Z,54.70
2018-02-17T01:10:43.976Z,55.70
2018-02-17T01:13:17.612Z,55.50
2018-02-17T01:15:52.172Z,53.20
2018-02-17T01:18:25.764Z,52.90
2018-02-17T01:23:33.976Z,55.40
2018-02-17T01:31:16.701Z,53.50
2018-02-17T01:33:50.528Z,53.50
2018-02-17T01:36:24.036Z,53.30
2018-02-17T01:38:57.877Z,53.30
2018-02-17T01:44:06.184Z,56.50
2018-02-17T01:46:40.600Z,55.20
2018-02-17T01:51:49.436Z,55.90
2018-02-17T01:54:23.007Z,56.00
2018-02-17T01:56:56.511Z,55.50
2018-02-17T02:02:04.999Z,56.70
2018-02-17T02:04:38.684Z,55.70
2018-02-17T02:12:22.473Z,53.20
2018-02-17T02:14:56.163Z,52.80
2018-02-17T02:17:29.720Z,52.60
2018-02-17T02:22:37.836Z,54.00
2018-02-17T02:32:55.131Z,55.30
2018-02-17T02:48:22.032Z,56.00
2018-02-17T02:50:55.696Z,56.00
2018-02-17T02:53:29.480Z,54.40
2018-02-17T02:56:03.456Z,53.50
2018-02-17T03:01:11.866Z,54.70
2018-02-17T03:03:45.517Z,57.30
2018-02-17T03:06:19.856Z,54.80
2018-02-17T03:08:53.400Z,55.00
2018-02-17T03:11:27.635Z,57.30
2018-02-17T03:14:01.115Z,56.20
2018-02-17T03:16:34.720Z,56.70
2018-02-17T03:19:08.263Z,56.30
2018-02-17T03:21:42.071Z,55.90
2018-02-17T03:24:15.829Z,55.80
2018-02-17T03:26:49.514Z,52.10
2018-02-17T03:29:23.077Z,50.60
2018-02-17T03:39:40.537Z,51.00
2018-02-17T03:42:14.959Z,51.90
2018-02-17T03:44:48.602Z,52.80
2018-02-17T03:47:22.205Z,53.50
2018-02-17T03:52:30.584Z,55.80
2018-02-17T03:57:38.700Z,55.10
2018-02-17T04:00:13.036Z,51.20
2018-02-17T04:07:56.727Z,53.30
2018-02-17T04:10:30.367Z,51.50
2018-02-17T04:13:04.726Z,52.00
2018-02-17T04:20:47.583Z,55.40
2018-02-17T04:23:21.129Z,51.40
2018-02-17T04:25:54.797Z,53.20
2018-02-17T04:28:28.332Z,54.50
2018-02-17T04:36:11.823Z,55.00
2018-02-17T04:38:45.519Z,56.50
2018-02-17T04:41:22.639Z,53.70
2018-02-17T04:46:59.739Z,52.10
2018-02-17T04:49:40.268Z,54.10
2018-02-17T04:52:16.867Z,53.80
2018-02-17T05:00:42.889Z,54.40
2018-02-17T05:03:22.624Z,53.90
2018-02-17T05:06:10.256Z,54.50
2018-02-17T05:11:24.878Z,55.20
2018-02-17T05:14:01.003Z,53.90
2018-02-17T05:16:40.976Z,50.90
2018-02-17T05:21:49.880Z,54.90
2018-02-17T05:27:04.736Z,53.20
2018-02-17T05:29:49.319Z,53.90
2018-02-17T05:35:09.202Z,53.30
2018-02-17T05:45:30.124Z,52.30
2018-02-17T05:48:05.807Z,53.20
2018-02-17T05:50:40.123Z,52.80
2018-02-17T05:58:23.640Z,50.40
2018-02-17T06:03:32.356Z,52.90
2018-02-17T06:06:06.056Z,52.90
2018-02-17T06:08:39.884Z,50.80
2018-02-17T06:11:13.563Z,52.00
2018-02-17T06:13:47.280Z,53.40
2018-02-17T06:21:30.127Z,51.30
2018-02-17T06:24:03.576Z,51.10
2018-02-17T06:26:37.887Z,52.20
2018-02-17T06:29:11.345Z,52.00
2018-02-17T06:36:54.686Z,49.60
2018-02-17T06:39:29.088Z,51.20
2018-02-17T06:42:03.537Z,50.50
2018-02-17T06:44:36.989Z,51.80
2018-02-17T06:57:28.883Z,52.60
2018-02-17T07:00:03.176Z,51.40
2018-02-17T07:02:37.144Z,51.70
2018-02-17T07:05:11.640Z,52.10
2018-02-17T07:07:45.115Z,51.20
2018-02-17T07:10:18.668Z,51.30
2018-02-17T07:12:53.028Z,51.70
2018-02-17T07:18:02.187Z,51.10
2018-02-17T07:20:35.824Z,50.80
2018-02-17T07:23:09.655Z,51.90
2018-02-17T07:25:43.204Z,50.90
2018-02-17T07:28:16.715Z,51.60
2018-02-17T07:30:50.511Z,49.30
2018-02-17T07:33:24.292Z,50.90
2018-02-17T07:38:33.357Z,49.30
2018-02-17T07:41:07.148Z,51.60
2018-02-17T07:46:16.052Z,49.70
2018-02-17T07:48:49.796Z,50.70
2018-02-17T07:51:23.444Z,50.20
2018-02-17T07:53:57.206Z,51.10
2018-02-17T07:56:31.576Z,51.10
2018-02-17T07:59:05.012Z,50.20
2018-02-17T08:01:38.668Z,50.10
2018-02-17T08:04:12.327Z,50.70
2018-02-17T08:09:21.253Z,51.10
2018-02-17T08:11:55.523Z,51.50
2018-02-17T08:14:29.075Z,50.30
2018-02-17T08:22:12.735Z,51.40
2018-02-17T08:32:30.991Z,50.90
2018-02-17T08:35:04.549Z,49.70
2018-02-17T08:40:12.650Z,48.00
2018-02-17T08:45:20.773Z,48.30
2018-02-17T08:50:28.803Z,50.10
2018-02-17T08:53:02.539Z,50.90
2018-02-17T08:55:36.576Z,49.10
2018-02-17T08:58:11.229Z,46.20
2018-02-17T09:00:45.635Z,47.20
2018-02-17T09:03:19.043Z,49.50
2018-02-17T09:16:11.100Z,48.30
2018-02-17T09:18:44.732Z,49.50
2018-02-17T09:26:28.516Z,47.30
2018-02-17T09:29:02.326Z,47.30
2018-02-17T09:34:10.350Z,48.00
2018-02-17T09:36:43.947Z,47.30
2018-02-17T09:39:17.663Z,46.20
2018-02-17T09:41:52.159Z,45.60
2018-02-17T09:49:36.063Z,46.20
2018-02-17T09:52:10.663Z,46.70
2018-02-17T09:57:18.734Z,46.90
2018-02-17T10:05:02.364Z,45.30
2018-02-17T10:07:36.140Z,46.40
2018-02-17T10:12:44.386Z,46.90
2018-02-17T10:15:18.264Z,45.90
2018-02-17T10:17:52.020Z,47.60
2018-02-17T10:20:26.511Z,46.90
2018-02-17T10:23:00.109Z,47.50
2018-02-17T10:25:34.553Z,47.30
2018-02-17T10:28:08.068Z,46.10
2018-02-17T10:30:41.919Z,46.50
2018-02-17T10:33:16.421Z,47.50
2018-02-17T10:35:49.916Z,45.70
2018-02-17T10:40:58.320Z,47.60
2018-02-17T10:43:32.645Z,44.30
2018-02-17T10:46:06.893Z,47.40
2018-02-17T10:51:15.748Z,48.00
2018-02-17T11:01:34.028Z,47.40
2018-02-17T11:04:07.771Z,46.30
2018-02-17T11:14:25.419Z,51.20
2018-02-17T11:16:59.050Z,50.30
2018-02-17T11:22:07.241Z,51.20
2018-02-17T11:24:41.616Z,53.90
2018-02-17T11:29:50.048Z,50.40
2018-02-17T11:34:59.178Z,53.10
2018-02-17T11:40:08.008Z,54.60
2018-02-17T11:50:26.376Z,52.20
2018-02-17T11:53:00.448Z,50.20
2018-02-17T11:55:34.096Z,52.10
2018-02-17T12:00:42.656Z,52.30
2018-02-17T12:03:16.948Z,51.70
2018-02-17T12:13:34.737Z,51.20
2018-02-17T12:18:44.017Z,52.60
2018-02-17T12:21:17.522Z,53.20
2018-02-17T12:26:25.631Z,51.40
2018-02-17T12:31:34.450Z,54.10
2018-02-17T12:34:08.780Z,49.20
2018-02-17T12:36:42.348Z,56.20
2018-02-17T12:39:16.041Z,59.00
2018-02-17T12:41:49.712Z,49.60
2018-02-17T12:59:22.571Z,41.10
2018-02-17T13:04:31.310Z,42.10
2018-02-17T13:07:05.139Z,50.00
2018-02-17T13:09:38.806Z,50.30
2018-02-17T13:17:22.056Z,48.30
2018-02-17T13:19:56.704Z,49.90
2018-02-17T13:27:55.877Z,52.40
2018-02-17T13:30:29.608Z,52.10
2018-02-17T13:33:12.364Z,47.10
2018-02-17T13:35:48.515Z,43.00
2018-02-17T13:38:21.968Z,44.80
2018-02-17T13:40:57.038Z,49.60
2018-02-17T13:43:30.814Z,51.10
2018-02-17T13:46:05.342Z,50.20
2018-02-17T13:48:44.357Z,52.50
2018-02-17T13:51:21.528Z,52.10
2018-02-17T13:53:59.656Z,51.80
2018-02-17T13:56:42.630Z,53.80
2018-02-17T13:59:17.150Z,53.00
2018-02-17T14:01:50.636Z,52.20
2018-02-17T14:04:26.540Z,53.60
2018-02-17T14:07:01.996Z,53.30
2018-02-17T14:09:39.174Z,53.40
2018-02-17T14:12:13.508Z,55.50
2018-02-17T14:14:51.361Z,54.10
2018-02-17T14:17:25.854Z,54.60
2018-02-17T14:20:04.129Z,54.10
2018-02-17T14:22:42.661Z,55.60
2018-02-17T14:25:17.732Z,56.30
2018-02-17T14:27:51.365Z,54.00
2018-02-17T14:30:26.585Z,55.10
2018-02-17T14:33:02.937Z,54.00
2018-02-17T14:35:43.151Z,55.10
2018-02-17T14:40:54.190Z,55.80
2018-02-17T14:43:30.818Z,56.40
2018-02-17T14:48:56.043Z,56.00
2018-02-17T14:51:34.385Z,54.50
2018-02-17T14:56:44.264Z,55.00
2018-02-17T14:59:19.446Z,55.50
2018-02-17T15:04:31.214Z,54.80
2018-02-17T15:07:08.396Z,54.50
2018-02-17T15:09:45.122Z,55.80
2018-02-17T15:12:20.608Z,57.00
2018-02-17T15:17:32.820Z,56.90
2018-02-17T15:20:00.377Z,55.40
2018-02-17T15:22:34.215Z,58.50
2018-02-17T15:25:06.511Z,56.30
2018-02-17T15:27:34.028Z,55.70
2018-02-17T15:30:06.084Z,54.60
2018-02-17T15:42:32.290Z,54.20
2018-02-17T15:45:03.889Z,56.00
2018-02-17T15:47:33.890Z,55.90
2018-02-17T15:55:06.013Z,55.90
2018-02-17T15:57:37.036Z,56.90
2018-02-17T16:00:10.366Z,55.80
2018-02-17T16:02:41.454Z,55.40
2018-02-17T16:07:49.732Z,55.60
2018-02-17T16:10:18.972Z,55.80
2018-02-17T16:12:47.137Z,55.80
2018-02-17T16:15:15.316Z,56.30
2018-02-17T16:17:47.461Z,55.30
2018-02-17T16:20:21.446Z,56.30
2018-02-17T16:22:50.873Z,55.70
2018-02-17T16:25:25.501Z,55.10
2018-02-17T16:27:56.780Z,56.80
2018-02-17T16:30:31.669Z,55.30
2018-02-17T16:33:04.561Z,55.10
2018-02-17T16:35:32.937Z,55.90
2018-02-17T16:38:02.980Z,55.10
2018-02-17T16:40:32.821Z,56.60
2018-02-17T16:43:05.921Z,57.90
2018-02-17T16:45:34.207Z,58.20
2018-02-17T16:48:03.498Z,55.90
2018-02-17T16:50:33.348Z,56.40
2018-02-17T16:53:06.437Z,57.60
2018-02-17T16:55:33.884Z,55.80
2018-02-17T16:58:03.830Z,55.70
2018-02-17T17:00:31.233Z,54.90
2018-02-17T17:05:34.505Z,55.70
2018-02-17T17:08:04.557Z,55.00
2018-02-17T17:10:31.961Z,55.20
2018-02-17T17:13:04.375Z,54.80
2018-02-17T17:15:38.388Z,56.10
2018-02-17T17:18:08.692Z,57.00
2018-02-17T17:20:39.537Z,55.60
2018-02-17T17:23:11.971Z,56.40
2018-02-17T17:25:42.024Z,56.40
2018-02-17T17:28:15.229Z,54.60
2018-02-17T17:30:42.619Z,56.30
2018-02-17T17:33:12.745Z,55.00
2018-02-17T17:35:41.048Z,55.30
2018-02-17T17:38:09.242Z,55.80
2018-02-17T17:40:43.724Z,55.40
2018-02-17T17:43:14.416Z,56.30
2018-02-17T17:45:41.983Z,57.70
2018-02-17T17:48:12.277Z,55.20
2018-02-17T17:50:43.057Z,55.90
2018-02-17T17:53:13.361Z,57.30
2018-02-17T17:55:40.833Z,55.20
2018-02-17T17:58:11.984Z,55.70
2018-02-17T18:00:45.356Z,56.30
2018-02-17T18:03:15.693Z,59.30
2018-02-17T18:08:11.465Z,55.20
2018-02-17T18:10:40.724Z,55.80
2018-02-17T18:13:10.828Z,55.40
2018-02-17T18:15:38.417Z,57.60
2018-02-17T18:18:06.617Z,56.40
2018-02-17T18:20:34.247Z,56.90
2018-02-17T18:23:01.658Z,55.90
2018-02-17T18:25:40.755Z,55.10
2018-02-17T18:28:08.253Z,57.60
2018-02-17T18:30:35.762Z,56.20
2018-02-17T18:33:03.883Z,56.10
2018-02-17T18:35:31.311Z,58.50
2018-02-17T18:37:58.731Z,56.10
2018-02-17T18:40:26.293Z,55.60
2018-02-17T18:42:54.506Z,57.40
2018-02-17T18:45:21.970Z,54.70
2018-02-17T18:47:49.313Z,57.10
2018-02-17T18:50:16.698Z,55.40
2018-02-17T18:52:44.079Z,55.20
2018-02-17T18:55:11.464Z,57.00
2018-02-17T18:57:39.627Z,57.80
2018-02-17T19:00:07.045Z,55.20
2018-02-17T19:02:34.538Z,56.30
2018-02-17T19:05:01.948Z,54.90
2018-02-17T19:07:29.430Z,59.30
2018-02-17T19:09:56.910Z,56.10
2018-02-17T19:12:25.111Z,55.10
2018-02-17T19:14:52.529Z,54.90
2018-02-17T19:17:19.900Z,56.10
2018-02-17T19:19:47.267Z,56.00
2018-02-17T19:22:14.676Z,54.50
2018-02-17T19:24:42.201Z,56.40
2018-02-17T19:27:13.304Z,56.60
2018-02-17T19:29:40.820Z,55.70
2018-02-17T19:32:08.138Z,56.00
2018-02-17T19:34:35.966Z,57.90
2018-02-17T19:37:03.303Z,56.10
2018-02-17T19:39:34.404Z,57.10
2018-02-17T19:42:02.621Z,56.50
2018-02-17T19:44:30.031Z,55.20
2018-02-17T19:46:57.516Z,55.10
2018-02-17T19:49:25.026Z,55.20
2018-02-17T19:51:53.174Z,55.70
2018-02-17T19:54:20.592Z,55.20
2018-02-17T19:56:48.075Z,58.40
2018-02-17T19:59:15.432Z,56.40
2018-02-17T20:01:42.880Z,55.50
2018-02-17T20:04:10.300Z,55.80
2018-02-17T20:06:37.680Z,55.70
2018-02-17T20:09:05.107Z,57.00
2018-02-17T20:11:32.456Z,56.30
2018-02-17T20:14:00.595Z,55.20
2018-02-17T20:16:28.168Z,57.30
2018-02-17T20:18:55.601Z,58.60
2018-02-17T20:21:23.197Z,56.60
2018-02-17T20:23:50.640Z,55.40
2018-02-17T20:26:18.047Z,55.10
2018-02-17T20:28:45.476Z,56.40
2018-02-17T20:31:13.753Z,58.00
2018-02-17T20:33:41.944Z,56.20
2018-02-17T20:36:09.384Z,56.80
2018-02-17T20:38:37.536Z,56.70
2018-02-17T20:41:05.208Z,55.40
2018-02-17T20:43:33.391Z,55.90
2018-02-17T20:46:00.842Z,56.80
2018-02-17T20:48:29.093Z,56.40
2018-02-17T20:50:56.591Z,55.80
2018-02-17T20:53:23.968Z,56.80
2018-02-17T20:55:51.409Z,55.20
2018-02-17T20:58:18.824Z,56.20
2018-02-17T21:00:47.091Z,54.50
2018-02-17T21:03:15.260Z,56.00
2018-02-17T21:05:43.425Z,56.70
2018-02-17T21:08:10.855Z,56.30
2018-02-17T21:10:38.209Z,56.20
2018-02-17T21:13:05.642Z,56.60
2018-02-17T21:15:33.018Z,56.30
2018-02-17T21:18:00.414Z,55.40
2018-02-17T21:20:28.730Z,56.50
2018-02-17T21:22:56.143Z,57.10
2018-02-17T21:25:24.291Z,57.60
2018-02-17T21:27:51.745Z,56.20
2018-02-17T21:30:19.160Z,57.10
2018-02-17T21:32:47.336Z,55.10
2018-02-17T21:35:14.805Z,55.40
2018-02-17T21:37:42.213Z,55.90
2018-02-17T21:40:09.627Z,55.90
2018-02-17T21:42:36.984Z,55.50
2018-02-17T21:45:04.406Z,56.30
2018-02-17T21:47:31.803Z,56.80
2018-02-17T21:49:59.186Z,55.00
2018-02-17T21:52:26.597Z,55.70
2018-02-17T21:54:54.066Z,54.30
2018-02-17T21:57:21.417Z,55.40
2018-02-17T21:59:48.799Z,56.90
2018-02-17T22:02:16.256Z,56.00
2018-02-17T22:04:43.721Z,55.10
2018-02-17T22:07:11.114Z,55.40
2018-02-17T22:09:38.727Z,55.20
2018-02-17T22:12:06.116Z,55.40
2018-02-17T22:14:34.260Z,57.90
2018-02-17T22:17:01.605Z,55.70
2018-02-17T22:19:28.990Z,55.30
2018-02-17T22:21:56.360Z,55.60
2018-02-17T22:24:24.562Z,54.30
2018-02-17T22:26:51.984Z,55.20
2018-02-17T22:29:20.433Z,58.60
2018-02-17T22:31:47.824Z,58.00
2018-02-17T22:34:15.201Z,55.40
2018-02-17T22:36:42.957Z,56.80
2018-02-17T22:39:10.296Z,56.60
2018-02-17T22:41:38.523Z,58.00
2018-02-17T22:44:05.925Z,56.30
2018-02-17T22:46:34.118Z,57.00
2018-02-17T22:49:01.574Z,56.40
2018-02-17T22:51:29.054Z,57.40
2018-02-17T22:53:56.459Z,57.80
2018-02-17T22:56:25.745Z,56.10
2018-02-17T22:58:53.136Z,58.00
2018-02-17T23:01:20.571Z,56.50
2018-02-17T23:03:48.017Z,56.60
2018-02-17T23:06:15.471Z,54.30
2018-02-17T23:08:43.806Z,53.70
2018-02-17T23:11:11.341Z,55.00
2018-02-17T23:13:38.788Z,55.90
2018-02-17T23:16:06.921Z,57.30
2018-02-17T23:18:34.473Z,57.60
2018-02-17T23:21:01.937Z,58.50
2018-02-17T23:23:29.333Z,58.70
2018-02-17T23:25:56.768Z,58.90
2018-02-17T23:28:24.921Z,58.00
2018-02-17T23:30:53.105Z,56.00
2018-02-17T23:33:20.589Z,57.10
2018-02-17T23:35:48.725Z,57.10
2018-02-17T23:38:16.104Z,56.50
2018-02-17T23:40:44.272Z,59.20
2018-02-17T23:43:12.471Z,61.10
2018-02-17T23:45:39.962Z,59.50
2018-02-17T23:48:07.355Z,56.80
2018-02-17T23:50:35.476Z,60.20
2018-02-17T23:53:02.908Z,58.50
2018-02-17T23:55:31.053Z,57.80
2018-02-17T23:57:58.676Z,57.10
